Portada
METAR-TAF:

METAR-TAF

Aeropuertos :

El Cairo, Egipto

Aeropuerto Internacional de El Cairo

latitud: 30-08N, longitud: 031-24E, altitud: 64 m

Observación

El informe se hizo hace 18 minutos, a las 23:00 UTC
Viento 8 kt del noroeste
Temperatura 18°C
Humedad 68%
Presión 1012 hPa
Visibilidad 10 km o más
Nubes dispersas a una altura de 2500 ft

METAR: HECA 212300Z 31008KT 9999 SCT025 18/12 Q1012 NOSIG

Hora: 01:18 (23:18 UTC)

Pronóstico

El informe se hizo hace 6 horas y 18 minutos, a las 17:00 UTC
Pronóstico válido del 21 a las 18 UTC al 22 a las 24 UTC
Viento 12 kt del norte-noroeste con ráfagas de 22 kt
Visibilidad 10 km o más
Nubes dispersas a una altura de 3000 ft
Cielo nuboso a una altura de 5000 ft
Probabilidad 40% :
Temporalmente
del 21 a las 18 UTC al 21 a las 24 UTC
Visibilidad: 4000 m
lluvia ligera, arena

TAF: HECA 211700Z 2118/2224 34012G22KT 9999 SCT030 BKN050 PROB40 TEMPO 2118/2124 4000 -RASA

Observaciones y pronósticos meteorológicos de más de 4000 aeropuertos (mensajes METAR y TAF).

Los puntos amarillos y rojos representan las estaciones disponibles.

Ponga el ratón en el punto deseado para ver el nombre de la estación.

Haga clic para ver las observaciones y los pronósticos meteorológicos.

Para cambiar el mapa : haga clic en los botones verdes con una cruz de color negro para hacer un zoom, en el botón verde con un guión para alejar o en las flechas verdes para mapas adyacentes.


METAR-TAF: